sensor_id;sensor_type;location;lat;lon;timestamp;P1;durP1;ratioP1;P2;durP2;ratioP2
10550;SDS011;5324;50.684;3.862;2023-05-20T00:01:19;8.90;;;5.63;;
10550;SDS011;5324;50.684;3.862;2023-05-20T00:03:45;10.17;;;5.23;;
10550;SDS011;5324;50.684;3.862;2023-05-20T00:06:11;12.67;;;6.03;;
10550;SDS011;5324;50.684;3.862;2023-05-20T00:08:37;12.40;;;6.27;;
10550;SDS011;5324;50.684;3.862;2023-05-20T00:11:03;10.90;;;6.67;;
10550;SDS011;5324;50.684;3.862;2023-05-20T00:13:29;9.80;;;6.37;;
10550;SDS011;5324;50.684;3.862;2023-05-20T00:15:55;7.80;;;5.83;;
10550;SDS011;5324;50.684;3.862;2023-05-20T00:18:21;12.57;;;6.07;;
10550;SDS011;5324;50.684;3.862;2023-05-20T00:20:48;10.90;;;5.97;;
10550;SDS011;5324;50.684;3.862;2023-05-20T00:23:14;10.17;;;6.17;;
10550;SDS011;5324;50.684;3.862;2023-05-20T00:25:40;13.50;;;6.53;;
10550;SDS011;5324;50.684;3.862;2023-05-20T00:28:06;9.33;;;5.77;;
10550;SDS011;5324;50.684;3.862;2023-05-20T00:30:32;9.20;;;6.33;;
10550;SDS011;5324;50.684;3.862;2023-05-20T00:32:58;8.57;;;5.83;;
10550;SDS011;5324;50.684;3.862;2023-05-20T00:35:24;9.93;;;5.83;;
10550;SDS011;5324;50.684;3.862;2023-05-20T00:37:50;8.53;;;6.23;;
10550;SDS011;5324;50.684;3.862;2023-05-20T00:40:17;13.63;;;6.70;;
10550;SDS011;5324;50.684;3.862;2023-05-20T00:42:43;10.57;;;6.30;;
10550;SDS011;5324;50.684;3.862;2023-05-20T00:45:09;12.13;;;6.53;;
10550;SDS011;5324;50.684;3.862;2023-05-20T00:47:35;12.00;;;6.87;;
10550;SDS011;5324;50.684;3.862;2023-05-20T00:50:01;11.10;;;6.87;;
10550;SDS011;5324;50.684;3.862;2023-05-20T00:52:28;18.13;;;6.87;;
10550;SDS011;5324;50.684;3.862;2023-05-20T00:54:56;12.63;;;6.57;;
10550;SDS011;5324;50.684;3.862;2023-05-20T00:57:23;12.17;;;6.43;;
10550;SDS011;5324;50.684;3.862;2023-05-20T00:59:50;12.57;;;6.87;;
10550;SDS011;5324;50.684;3.862;2023-05-20T01:02:16;11.63;;;6.57;;
10550;SDS011;5324;50.684;3.862;2023-05-20T01:04:42;8.53;;;6.33;;
10550;SDS011;5324;50.684;3.862;2023-05-20T01:07:11;13.00;;;6.43;;
10550;SDS011;5324;50.684;3.862;2023-05-20T01:09:37;13.20;;;6.77;;
10550;SDS011;5324;50.684;3.862;2023-05-20T01:14:34;10.13;;;7.53;;
10550;SDS011;5324;50.684;3.862;2023-05-20T01:17:01;13.53;;;6.97;;
10550;SDS011;5324;50.684;3.862;2023-05-20T01:19:37;9.97;;;6.77;;
10550;SDS011;5324;50.684;3.862;2023-05-20T01:22:04;11.23;;;7.13;;
10550;SDS011;5324;50.684;3.862;2023-05-20T01:24:31;9.00;;;6.87;;
10550;SDS011;5324;50.684;3.862;2023-05-20T01:26:58;9.93;;;7.10;;
10550;SDS011;5324;50.684;3.862;2023-05-20T01:29:24;10.63;;;7.00;;
10550;SDS011;5324;50.684;3.862;2023-05-20T01:31:50;10.97;;;7.50;;
10550;SDS011;5324;50.684;3.862;2023-05-20T01:34:16;13.20;;;6.60;;
10550;SDS011;5324;50.684;3.862;2023-05-20T01:36:44;9.77;;;6.67;;
10550;SDS011;5324;50.684;3.862;2023-05-20T01:39:11;10.20;;;6.60;;
10550;SDS011;5324;50.684;3.862;2023-05-20T01:41:37;11.77;;;6.90;;
10550;SDS011;5324;50.684;3.862;2023-05-20T01:44:03;12.63;;;7.20;;
10550;SDS011;5324;50.684;3.862;2023-05-20T01:46:33;11.30;;;6.80;;
10550;SDS011;5324;50.684;3.862;2023-05-20T01:48:59;10.33;;;6.23;;
10550;SDS011;5324;50.684;3.862;2023-05-20T01:51:25;10.97;;;6.83;;
10550;SDS011;5324;50.684;3.862;2023-05-20T01:53:51;14.53;;;7.57;;
10550;SDS011;5324;50.684;3.862;2023-05-20T01:56:18;11.67;;;6.37;;
10550;SDS011;5324;50.684;3.862;2023-05-20T01:58:44;11.40;;;7.43;;
10550;SDS011;5324;50.684;3.862;2023-05-20T02:01:10;11.40;;;7.17;;
10550;SDS011;5324;50.684;3.862;2023-05-20T02:03:36;11.17;;;6.87;;
10550;SDS011;5324;50.684;3.862;2023-05-20T02:06:02;11.03;;;6.27;;
10550;SDS011;5324;50.684;3.862;2023-05-20T02:08:28;9.30;;;6.40;;
10550;SDS011;5324;50.684;3.862;2023-05-20T02:10:54;14.03;;;6.27;;
10550;SDS011;5324;50.684;3.862;2023-05-20T02:13:20;9.53;;;6.80;;
10550;SDS011;5324;50.684;3.862;2023-05-20T02:15:46;9.60;;;6.90;;
10550;SDS011;5324;50.684;3.862;2023-05-20T02:18:12;9.53;;;6.30;;
10550;SDS011;5324;50.684;3.862;2023-05-20T02:20:38;14.67;;;7.17;;
10550;SDS011;5324;50.684;3.862;2023-05-20T02:23:05;11.37;;;6.90;;
10550;SDS011;5324;50.684;3.862;2023-05-20T02:25:32;9.97;;;6.80;;
10550;SDS011;5324;50.684;3.862;2023-05-20T02:27:58;9.10;;;6.53;;
10550;SDS011;5324;50.684;3.862;2023-05-20T02:30:25;8.70;;;6.77;;
10550;SDS011;5324;50.684;3.862;2023-05-20T02:32:51;9.27;;;6.17;;
10550;SDS011;5324;50.684;3.862;2023-05-20T02:35:17;12.90;;;6.30;;
10550;SDS011;5324;50.684;3.862;2023-05-20T02:37:44;9.37;;;6.50;;
10550;SDS011;5324;50.684;3.862;2023-05-20T02:40:10;8.33;;;6.10;;
10550;SDS011;5324;50.684;3.862;2023-05-20T02:42:36;9.47;;;6.57;;
10550;SDS011;5324;50.684;3.862;2023-05-20T02:45:03;9.37;;;6.50;;
10550;SDS011;5324;50.684;3.862;2023-05-20T02:47:30;10.07;;;6.53;;
10550;SDS011;5324;50.684;3.862;2023-05-20T02:49:56;8.30;;;5.60;;
10550;SDS011;5324;50.684;3.862;2023-05-20T02:52:22;8.33;;;5.67;;
10550;SDS011;5324;50.684;3.862;2023-05-20T02:54:48;8.03;;;5.70;;
10550;SDS011;5324;50.684;3.862;2023-05-20T02:57:14;11.13;;;6.23;;
10550;SDS011;5324;50.684;3.862;2023-05-20T02:59:40;8.27;;;6.03;;
10550;SDS011;5324;50.684;3.862;2023-05-20T03:02:06;7.70;;;6.20;;
10550;SDS011;5324;50.684;3.862;2023-05-20T03:04:32;9.23;;;5.80;;
10550;SDS011;5324;50.684;3.862;2023-05-20T03:07:02;12.37;;;5.87;;
10550;SDS011;5324;50.684;3.862;2023-05-20T03:09:29;6.53;;;5.47;;
10550;SDS011;5324;50.684;3.862;2023-05-20T03:11:55;7.37;;;5.37;;
10550;SDS011;5324;50.684;3.862;2023-05-20T03:14:21;7.37;;;5.40;;
10550;SDS011;5324;50.684;3.862;2023-05-20T03:16:47;6.47;;;5.00;;
10550;SDS011;5324;50.684;3.862;2023-05-20T03:19:13;5.73;;;5.00;;
10550;SDS011;5324;50.684;3.862;2023-05-20T03:21:40;8.03;;;5.47;;
10550;SDS011;5324;50.684;3.862;2023-05-20T03:24:07;8.40;;;5.10;;
10550;SDS011;5324;50.684;3.862;2023-05-20T03:26:34;6.13;;;4.60;;
10550;SDS011;5324;50.684;3.862;2023-05-20T03:29:03;10.20;;;5.17;;
10550;SDS011;5324;50.684;3.862;2023-05-20T03:31:29;6.43;;;4.50;;
10550;SDS011;5324;50.684;3.862;2023-05-20T03:33:55;8.17;;;4.20;;
10550;SDS011;5324;50.684;3.862;2023-05-20T03:36:21;11.60;;;4.73;;
10550;SDS011;5324;50.684;3.862;2023-05-20T03:38:47;5.67;;;4.47;;
10550;SDS011;5324;50.684;3.862;2023-05-20T03:41:13;7.17;;;4.27;;
10550;SDS011;5324;50.684;3.862;2023-05-20T03:43:39;6.17;;;4.50;;
10550;SDS011;5324;50.684;3.862;2023-05-20T03:46:05;7.80;;;4.80;;
10550;SDS011;5324;50.684;3.862;2023-05-20T03:48:31;5.57;;;4.50;;
10550;SDS011;5324;50.684;3.862;2023-05-20T03:50:57;5.60;;;4.10;;
10550;SDS011;5324;50.684;3.862;2023-05-20T03:53:23;7.10;;;4.27;;
10550;SDS011;5324;50.684;3.862;2023-05-20T03:55:49;6.83;;;4.37;;
10550;SDS011;5324;50.684;3.862;2023-05-20T03:58:16;8.10;;;4.77;;
10550;SDS011;5324;50.684;3.862;2023-05-20T04:00:42;5.30;;;4.13;;
10550;SDS011;5324;50.684;3.862;2023-05-20T04:03:08;6.60;;;4.53;;
10550;SDS011;5324;50.684;3.862;2023-05-20T04:05:34;7.67;;;4.30;;
10550;SDS011;5324;50.684;3.862;2023-05-20T04:08:01;4.40;;;4.00;;
10550;SDS011;5324;50.684;3.862;2023-05-20T04:10:28;5.13;;;3.90;;
10550;SDS011;5324;50.684;3.862;2023-05-20T04:12:56;6.30;;;4.03;;
10550;SDS011;5324;50.684;3.862;2023-05-20T04:15:22;6.00;;;3.77;;
10550;SDS011;5324;50.684;3.862;2023-05-20T04:17:49;6.27;;;4.50;;
10550;SDS011;5324;50.684;3.862;2023-05-20T04:20:16;5.67;;;4.13;;
10550;SDS011;5324;50.684;3.862;2023-05-20T04:22:42;6.47;;;4.33;;
10550;SDS011;5324;50.684;3.862;2023-05-20T04:25:08;8.47;;;3.73;;
10550;SDS011;5324;50.684;3.862;2023-05-20T04:27:34;4.93;;;4.20;;
10550;SDS011;5324;50.684;3.862;2023-05-20T04:30:04;7.27;;;4.20;;
10550;SDS011;5324;50.684;3.862;2023-05-20T04:32:31;8.43;;;3.80;;
10550;SDS011;5324;50.684;3.862;2023-05-20T04:35:00;5.43;;;4.07;;
10550;SDS011;5324;50.684;3.862;2023-05-20T04:37:27;6.83;;;4.10;;
10550;SDS011;5324;50.684;3.862;2023-05-20T04:39:53;4.53;;;3.67;;
10550;SDS011;5324;50.684;3.862;2023-05-20T04:42:19;7.13;;;4.00;;
10550;SDS011;5324;50.684;3.862;2023-05-20T04:44:46;5.40;;;3.53;;
10550;SDS011;5324;50.684;3.862;2023-05-20T04:47:12;5.93;;;3.87;;
10550;SDS011;5324;50.684;3.862;2023-05-20T04:49:39;7.37;;;4.07;;
10550;SDS011;5324;50.684;3.862;2023-05-20T04:52:05;6.97;;;4.57;;
10550;SDS011;5324;50.684;3.862;2023-05-20T04:54:31;6.60;;;3.97;;
10550;SDS011;5324;50.684;3.862;2023-05-20T04:56:57;7.23;;;3.53;;
10550;SDS011;5324;50.684;3.862;2023-05-20T04:59:24;6.07;;;4.33;;
10550;SDS011;5324;50.684;3.862;2023-05-20T05:01:50;5.73;;;4.10;;
10550;SDS011;5324;50.684;3.862;2023-05-20T05:04:16;4.53;;;4.13;;
10550;SDS011;5324;50.684;3.862;2023-05-20T05:06:42;7.97;;;4.30;;
10550;SDS011;5324;50.684;3.862;2023-05-20T05:09:08;5.73;;;4.30;;
10550;SDS011;5324;50.684;3.862;2023-05-20T05:11:34;9.23;;;4.53;;
10550;SDS011;5324;50.684;3.862;2023-05-20T05:14:00;8.60;;;4.30;;
10550;SDS011;5324;50.684;3.862;2023-05-20T05:16:26;9.33;;;4.53;;
10550;SDS011;5324;50.684;3.862;2023-05-20T05:18:52;8.30;;;4.60;;
10550;SDS011;5324;50.684;3.862;2023-05-20T05:21:18;9.23;;;4.73;;
10550;SDS011;5324;50.684;3.862;2023-05-20T05:23:44;8.17;;;4.53;;
10550;SDS011;5324;50.684;3.862;2023-05-20T05:26:10;5.33;;;3.70;;
10550;SDS011;5324;50.684;3.862;2023-05-20T05:28:36;7.43;;;4.60;;
10550;SDS011;5324;50.684;3.862;2023-05-20T05:31:02;4.20;;;3.73;;
10550;SDS011;5324;50.684;3.862;2023-05-20T05:33:29;5.13;;;4.13;;
10550;SDS011;5324;50.684;3.862;2023-05-20T05:35:55;6.80;;;4.33;;
10550;SDS011;5324;50.684;3.862;2023-05-20T05:38:23;7.33;;;4.33;;
10550;SDS011;5324;50.684;3.862;2023-05-20T05:40:49;6.80;;;4.50;;
10550;SDS011;5324;50.684;3.862;2023-05-20T05:43:15;8.37;;;4.67;;
10550;SDS011;5324;50.684;3.862;2023-05-20T05:45:41;5.40;;;4.33;;
10550;SDS011;5324;50.684;3.862;2023-05-20T05:48:07;8.63;;;4.00;;
10550;SDS011;5324;50.684;3.862;2023-05-20T05:50:33;6.47;;;4.63;;
10550;SDS011;5324;50.684;3.862;2023-05-20T05:52:59;6.33;;;4.50;;
10550;SDS011;5324;50.684;3.862;2023-05-20T05:55:25;7.30;;;4.67;;
10550;SDS011;5324;50.684;3.862;2023-05-20T05:57:51;9.83;;;4.80;;
10550;SDS011;5324;50.684;3.862;2023-05-20T06:00:17;7.00;;;4.90;;
10550;SDS011;5324;50.684;3.862;2023-05-20T06:02:44;5.30;;;4.00;;
10550;SDS011;5324;50.684;3.862;2023-05-20T06:05:10;11.30;;;4.63;;
10550;SDS011;5324;50.684;3.862;2023-05-20T06:07:36;7.30;;;4.83;;
10550;SDS011;5324;50.684;3.862;2023-05-20T06:10:02;6.83;;;4.50;;
10550;SDS011;5324;50.684;3.862;2023-05-20T06:12:28;8.67;;;5.33;;
10550;SDS011;5324;50.684;3.862;2023-05-20T06:14:54;9.27;;;5.30;;
10550;SDS011;5324;50.684;3.862;2023-05-20T06:17:20;8.70;;;4.30;;
10550;SDS011;5324;50.684;3.862;2023-05-20T06:19:46;6.43;;;4.33;;
10550;SDS011;5324;50.684;3.862;2023-05-20T06:22:12;8.30;;;4.50;;
10550;SDS011;5324;50.684;3.862;2023-05-20T06:24:38;10.10;;;4.70;;
10550;SDS011;5324;50.684;3.862;2023-05-20T06:27:04;5.73;;;4.30;;
10550;SDS011;5324;50.684;3.862;2023-05-20T06:29:30;6.60;;;4.50;;
10550;SDS011;5324;50.684;3.862;2023-05-20T06:31:56;6.10;;;4.33;;
10550;SDS011;5324;50.684;3.862;2023-05-20T06:34:22;5.63;;;4.57;;
10550;SDS011;5324;50.684;3.862;2023-05-20T06:36:49;6.50;;;4.13;;
10550;SDS011;5324;50.684;3.862;2023-05-20T06:39:15;6.60;;;4.23;;
10550;SDS011;5324;50.684;3.862;2023-05-20T06:41:41;7.77;;;4.23;;
10550;SDS011;5324;50.684;3.862;2023-05-20T06:44:08;6.10;;;4.57;;
10550;SDS011;5324;50.684;3.862;2023-05-20T06:46:34;7.57;;;4.57;;
10550;SDS011;5324;50.684;3.862;2023-05-20T06:49:00;10.63;;;4.10;;
10550;SDS011;5324;50.684;3.862;2023-05-20T06:51:27;6.53;;;4.57;;
10550;SDS011;5324;50.684;3.862;2023-05-20T06:53:53;6.50;;;5.03;;
10550;SDS011;5324;50.684;3.862;2023-05-20T06:56:19;8.07;;;4.80;;
10550;SDS011;5324;50.684;3.862;2023-05-20T06:58:45;4.80;;;4.27;;
10550;SDS011;5324;50.684;3.862;2023-05-20T07:01:11;7.00;;;4.90;;
10550;SDS011;5324;50.684;3.862;2023-05-20T07:03:37;7.87;;;5.27;;
10550;SDS011;5324;50.684;3.862;2023-05-20T07:06:03;9.40;;;5.27;;
10550;SDS011;5324;50.684;3.862;2023-05-20T07:08:29;7.00;;;4.87;;
10550;SDS011;5324;50.684;3.862;2023-05-20T07:10:55;4.77;;;4.33;;
10550;SDS011;5324;50.684;3.862;2023-05-20T07:13:21;7.43;;;5.13;;
10550;SDS011;5324;50.684;3.862;2023-05-20T07:15:48;8.07;;;4.53;;
10550;SDS011;5324;50.684;3.862;2023-05-20T07:18:14;6.40;;;4.43;;
10550;SDS011;5324;50.684;3.862;2023-05-20T07:20:40;8.70;;;4.97;;
10550;SDS011;5324;50.684;3.862;2023-05-20T07:23:07;7.33;;;4.60;;
10550;SDS011;5324;50.684;3.862;2023-05-20T07:25:33;7.07;;;4.80;;
10550;SDS011;5324;50.684;3.862;2023-05-20T07:27:59;6.93;;;4.53;;
10550;SDS011;5324;50.684;3.862;2023-05-20T07:30:25;9.77;;;5.20;;
10550;SDS011;5324;50.684;3.862;2023-05-20T07:32:51;8.20;;;4.67;;
10550;SDS011;5324;50.684;3.862;2023-05-20T07:35:17;7.70;;;4.50;;
10550;SDS011;5324;50.684;3.862;2023-05-20T07:37:43;8.00;;;4.80;;
10550;SDS011;5324;50.684;3.862;2023-05-20T07:40:10;6.10;;;4.47;;
10550;SDS011;5324;50.684;3.862;2023-05-20T07:42:36;9.07;;;5.03;;
10550;SDS011;5324;50.684;3.862;2023-05-20T07:45:02;6.53;;;4.80;;
10550;SDS011;5324;50.684;3.862;2023-05-20T07:47:29;7.77;;;4.80;;
10550;SDS011;5324;50.684;3.862;2023-05-20T07:49:56;10.27;;;4.43;;
10550;SDS011;5324;50.684;3.862;2023-05-20T07:52:22;5.43;;;4.47;;
10550;SDS011;5324;50.684;3.862;2023-05-20T07:54:49;6.37;;;5.07;;
10550;SDS011;5324;50.684;3.862;2023-05-20T07:57:15;5.37;;;4.27;;
10550;SDS011;5324;50.684;3.862;2023-05-20T07:59:41;9.23;;;5.07;;
10550;SDS011;5324;50.684;3.862;2023-05-20T08:02:07;7.27;;;4.33;;
10550;SDS011;5324;50.684;3.862;2023-05-20T08:04:33;7.80;;;4.97;;
10550;SDS011;5324;50.684;3.862;2023-05-20T08:06:59;5.27;;;4.50;;
10550;SDS011;5324;50.684;3.862;2023-05-20T08:09:25;4.80;;;3.90;;
10550;SDS011;5324;50.684;3.862;2023-05-20T08:11:51;5.50;;;4.10;;
10550;SDS011;5324;50.684;3.862;2023-05-20T08:14:17;6.03;;;4.10;;
10550;SDS011;5324;50.684;3.862;2023-05-20T08:16:43;7.27;;;4.47;;
10550;SDS011;5324;50.684;3.862;2023-05-20T08:19:10;7.10;;;4.50;;
10550;SDS011;5324;50.684;3.862;2023-05-20T08:21:36;5.43;;;4.43;;
10550;SDS011;5324;50.684;3.862;2023-05-20T08:24:02;6.50;;;4.40;;
10550;SDS011;5324;50.684;3.862;2023-05-20T08:26:29;6.23;;;4.10;;
10550;SDS011;5324;50.684;3.862;2023-05-20T08:28:55;4.87;;;4.00;;
10550;SDS011;5324;50.684;3.862;2023-05-20T08:31:21;4.43;;;4.00;;
10550;SDS011;5324;50.684;3.862;2023-05-20T08:33:47;7.13;;;4.17;;
10550;SDS011;5324;50.684;3.862;2023-05-20T08:36:13;4.47;;;4.00;;
10550;SDS011;5324;50.684;3.862;2023-05-20T08:38:40;7.17;;;3.83;;
10550;SDS011;5324;50.684;3.862;2023-05-20T08:41:06;3.77;;;3.47;;
10550;SDS011;5324;50.684;3.862;2023-05-20T08:43:32;5.57;;;3.97;;
10550;SDS011;5324;50.684;3.862;2023-05-20T08:45:59;8.07;;;4.20;;
10550;SDS011;5324;50.684;3.862;2023-05-20T08:48:27;4.88;;;3.72;;
10550;SDS011;5324;50.684;3.862;2023-05-20T08:50:55;5.47;;;4.15;;
10550;SDS011;5324;50.684;3.862;2023-05-20T08:53:22;5.15;;;4.07;;
10550;SDS011;5324;50.684;3.862;2023-05-20T08:55:55;4.67;;;3.90;;
10550;SDS011;5324;50.684;3.862;2023-05-20T08:58:22;7.70;;;3.77;;
10550;SDS011;5324;50.684;3.862;2023-05-20T09:00:48;3.22;;;2.92;;
10550;SDS011;5324;50.684;3.862;2023-05-20T09:03:15;4.88;;;3.67;;
10550;SDS011;5324;50.684;3.862;2023-05-20T09:05:41;3.30;;;3.00;;
10550;SDS011;5324;50.684;3.862;2023-05-20T09:08:07;8.25;;;4.00;;
10550;SDS011;5324;50.684;3.862;2023-05-20T09:10:34;5.72;;;3.50;;
10550;SDS011;5324;50.684;3.862;2023-05-20T09:13:01;4.75;;;3.80;;
10550;SDS011;5324;50.684;3.862;2023-05-20T09:15:28;4.97;;;3.38;;
10550;SDS011;5324;50.684;3.862;2023-05-20T09:17:54;8.73;;;3.05;;
10550;SDS011;5324;50.684;3.862;2023-05-20T09:20:21;7.45;;;2.70;;
10550;SDS011;5324;50.684;3.862;2023-05-20T09:22:49;3.47;;;2.60;;
10550;SDS011;5324;50.684;3.862;2023-05-20T09:25:20;3.45;;;3.15;;
10550;SDS011;5324;50.684;3.862;2023-05-20T09:27:47;3.97;;;3.28;;
10550;SDS011;5324;50.684;3.862;2023-05-20T09:30:13;4.85;;;3.20;;
10550;SDS011;5324;50.684;3.862;2023-05-20T09:32:39;4.95;;;3.22;;
10550;SDS011;5324;50.684;3.862;2023-05-20T09:35:05;5.13;;;3.53;;
10550;SDS011;5324;50.684;3.862;2023-05-20T09:37:32;3.78;;;3.22;;
10550;SDS011;5324;50.684;3.862;2023-05-20T09:39:59;14.50;;;3.72;;
10550;SDS011;5324;50.684;3.862;2023-05-20T09:42:34;5.63;;;3.08;;
10550;SDS011;5324;50.684;3.862;2023-05-20T09:45:02;4.45;;;3.13;;
10550;SDS011;5324;50.684;3.862;2023-05-20T09:47:29;11.30;;;2.97;;
10550;SDS011;5324;50.684;3.862;2023-05-20T09:49:56;5.38;;;3.38;;
10550;SDS011;5324;50.684;3.862;2023-05-20T09:52:22;3.22;;;2.80;;
10550;SDS011;5324;50.684;3.862;2023-05-20T09:54:49;4.00;;;2.70;;
10550;SDS011;5324;50.684;3.862;2023-05-20T09:57:15;4.30;;;3.22;;
10550;SDS011;5324;50.684;3.862;2023-05-20T09:59:41;4.78;;;3.22;;
10550;SDS011;5324;50.684;3.862;2023-05-20T10:02:08;9.20;;;3.00;;
10550;SDS011;5324;50.684;3.862;2023-05-20T10:04:35;3.53;;;3.00;;
10550;SDS011;5324;50.684;3.862;2023-05-20T10:12:26;5.22;;;2.70;;
10550;SDS011;5324;50.684;3.862;2023-05-20T10:19:49;6.50;;;3.42;;
10550;SDS011;5324;50.684;3.862;2023-05-20T10:22:24;3.55;;;3.13;;
10550;SDS011;5324;50.684;3.862;2023-05-20T10:24:56;5.00;;;3.30;;
10550;SDS011;5324;50.684;3.862;2023-05-20T10:27:22;2.97;;;2.70;;
10550;SDS011;5324;50.684;3.862;2023-05-20T10:29:49;3.85;;;3.03;;
10550;SDS011;5324;50.684;3.862;2023-05-20T10:32:28;5.82;;;2.90;;
10550;SDS011;5324;50.684;3.862;2023-05-20T10:35:00;3.13;;;2.70;;
10550;SDS011;5324;50.684;3.862;2023-05-20T10:37:49;4.35;;;2.85;;
10550;SDS011;5324;50.684;3.862;2023-05-20T10:40:15;6.75;;;2.97;;
10550;SDS011;5324;50.684;3.862;2023-05-20T10:42:43;4.15;;;2.85;;
10550;SDS011;5324;50.684;3.862;2023-05-20T10:45:10;4.30;;;2.92;;
10550;SDS011;5324;50.684;3.862;2023-05-20T10:47:36;4.35;;;3.13;;
10550;SDS011;5324;50.684;3.862;2023-05-20T10:50:06;3.72;;;2.60;;
10550;SDS011;5324;50.684;3.862;2023-05-20T10:52:36;3.22;;;2.90;;
10550;SDS011;5324;50.684;3.862;2023-05-20T10:55:02;3.28;;;3.00;;
10550;SDS011;5324;50.684;3.862;2023-05-20T10:57:29;4.53;;;3.17;;
10550;SDS011;5324;50.684;3.862;2023-05-20T10:59:56;6.00;;;2.85;;
10550;SDS011;5324;50.684;3.862;2023-05-20T11:02:22;6.95;;;3.35;;
10550;SDS011;5324;50.684;3.862;2023-05-20T11:04:51;3.78;;;2.90;;
10550;SDS011;5324;50.684;3.862;2023-05-20T11:07:27;4.93;;;3.17;;
10550;SDS011;5324;50.684;3.862;2023-05-20T11:09:56;11.85;;;2.92;;
10550;SDS011;5324;50.684;3.862;2023-05-20T11:12:23;3.83;;;2.92;;
10550;SDS011;5324;50.684;3.862;2023-05-20T11:14:49;3.20;;;2.90;;
10550;SDS011;5324;50.684;3.862;2023-05-20T11:17:15;3.55;;;3.20;;
10550;SDS011;5324;50.684;3.862;2023-05-20T11:19:41;6.60;;;3.38;;
10550;SDS011;5324;50.684;3.862;2023-05-20T11:22:07;5.32;;;3.38;;
10550;SDS011;5324;50.684;3.862;2023-05-20T11:24:33;5.40;;;2.63;;
10550;SDS011;5324;50.684;3.862;2023-05-20T11:27:00;5.35;;;2.95;;
10550;SDS011;5324;50.684;3.862;2023-05-20T11:29:26;4.65;;;3.20;;
10550;SDS011;5324;50.684;3.862;2023-05-20T11:31:56;3.97;;;2.80;;
10550;SDS011;5324;50.684;3.862;2023-05-20T11:34:22;3.10;;;2.80;;
10550;SDS011;5324;50.684;3.862;2023-05-20T11:36:54;5.82;;;3.08;;
10550;SDS011;5324;50.684;3.862;2023-05-20T11:39:21;4.93;;;2.75;;
10550;SDS011;5324;50.684;3.862;2023-05-20T11:41:47;3.60;;;2.97;;
10550;SDS011;5324;50.684;3.862;2023-05-20T11:44:13;3.85;;;3.00;;
10550;SDS011;5324;50.684;3.862;2023-05-20T11:46:42;9.63;;;2.83;;
10550;SDS011;5324;50.684;3.862;2023-05-20T11:49:08;5.43;;;3.10;;
10550;SDS011;5324;50.684;3.862;2023-05-20T11:51:35;3.15;;;2.70;;
10550;SDS011;5324;50.684;3.862;2023-05-20T11:54:03;3.17;;;2.85;;
10550;SDS011;5324;50.684;3.862;2023-05-20T11:56:29;4.55;;;3.58;;
10550;SDS011;5324;50.684;3.862;2023-05-20T11:58:56;4.28;;;3.28;;
10550;SDS011;5324;50.684;3.862;2023-05-20T12:01:22;4.20;;;3.08;;
10550;SDS011;5324;50.684;3.862;2023-05-20T12:03:52;5.20;;;2.80;;
10550;SDS011;5324;50.684;3.862;2023-05-20T12:06:18;5.43;;;3.00;;
10550;SDS011;5324;50.684;3.862;2023-05-20T12:08:44;3.92;;;3.53;;
10550;SDS011;5324;50.684;3.862;2023-05-20T12:11:11;5.55;;;3.15;;
10550;SDS011;5324;50.684;3.862;2023-05-20T12:13:38;4.15;;;2.95;;
10550;SDS011;5324;50.684;3.862;2023-05-20T12:16:04;6.05;;;5.40;;
10550;SDS011;5324;50.684;3.862;2023-05-20T12:18:31;4.22;;;3.10;;
10550;SDS011;5324;50.684;3.862;2023-05-20T12:20:57;3.67;;;2.90;;
10550;SDS011;5324;50.684;3.862;2023-05-20T12:23:23;6.25;;;3.25;;
10550;SDS011;5324;50.684;3.862;2023-05-20T12:25:50;5.40;;;3.80;;
10550;SDS011;5324;50.684;3.862;2023-05-20T12:28:16;3.35;;;2.95;;
10550;SDS011;5324;50.684;3.862;2023-05-20T12:30:44;4.57;;;2.88;;
10550;SDS011;5324;50.684;3.862;2023-05-20T12:33:10;4.18;;;3.80;;
10550;SDS011;5324;50.684;3.862;2023-05-20T12:35:37;9.23;;;3.50;;
10550;SDS011;5324;50.684;3.862;2023-05-20T12:38:04;8.90;;;3.30;;
10550;SDS011;5324;50.684;3.862;2023-05-20T12:40:31;4.95;;;3.25;;
10550;SDS011;5324;50.684;3.862;2023-05-20T12:42:59;5.88;;;3.30;;
10550;SDS011;5324;50.684;3.862;2023-05-20T12:45:25;3.15;;;2.85;;
10550;SDS011;5324;50.684;3.862;2023-05-20T12:47:51;3.42;;;2.90;;
10550;SDS011;5324;50.684;3.862;2023-05-20T12:50:17;5.15;;;3.17;;
10550;SDS011;5324;50.684;3.862;2023-05-20T12:52:43;3.67;;;2.80;;
10550;SDS011;5324;50.684;3.862;2023-05-20T12:55:10;9.38;;;3.08;;
10550;SDS011;5324;50.684;3.862;2023-05-20T12:57:40;3.55;;;3.10;;
10550;SDS011;5324;50.684;3.862;2023-05-20T13:00:08;11.82;;;3.20;;
10550;SDS011;5324;50.684;3.862;2023-05-20T13:02:35;5.40;;;3.00;;
10550;SDS011;5324;50.684;3.862;2023-05-20T13:05:01;3.42;;;2.90;;
10550;SDS011;5324;50.684;3.862;2023-05-20T13:07:27;3.83;;;2.78;;
10550;SDS011;5324;50.684;3.862;2023-05-20T13:09:54;2.97;;;2.67;;
10550;SDS011;5324;50.684;3.862;2023-05-20T13:12:20;4.82;;;3.30;;
10550;SDS011;5324;50.684;3.862;2023-05-20T13:14:46;3.40;;;2.80;;
10550;SDS011;5324;50.684;3.862;2023-05-20T13:17:12;3.72;;;3.08;;
10550;SDS011;5324;50.684;3.862;2023-05-20T13:19:38;3.22;;;2.97;;
10550;SDS011;5324;50.684;3.862;2023-05-20T13:22:04;3.20;;;2.80;;
10550;SDS011;5324;50.684;3.862;2023-05-20T13:24:30;5.88;;;2.95;;
10550;SDS011;5324;50.684;3.862;2023-05-20T13:26:56;4.10;;;3.03;;
10550;SDS011;5324;50.684;3.862;2023-05-20T13:29:22;3.10;;;2.80;;
10550;SDS011;5324;50.684;3.862;2023-05-20T13:31:49;5.53;;;3.40;;
10550;SDS011;5324;50.684;3.862;2023-05-20T13:34:15;3.05;;;2.63;;
10550;SDS011;5324;50.684;3.862;2023-05-20T13:36:41;4.68;;;2.78;;
10550;SDS011;5324;50.684;3.862;2023-05-20T13:39:07;4.20;;;3.30;;
10550;SDS011;5324;50.684;3.862;2023-05-20T13:41:33;3.58;;;3.28;;
10550;SDS011;5324;50.684;3.862;2023-05-20T13:43:59;4.63;;;3.03;;
10550;SDS011;5324;50.684;3.862;2023-05-20T13:46:25;5.70;;;3.20;;
10550;SDS011;5324;50.684;3.862;2023-05-20T13:48:52;4.97;;;3.22;;
10550;SDS011;5324;50.684;3.862;2023-05-20T13:51:18;6.40;;;2.92;;
10550;SDS011;5324;50.684;3.862;2023-05-20T13:53:44;4.25;;;3.10;;
10550;SDS011;5324;50.684;3.862;2023-05-20T13:56:10;4.13;;;3.25;;
10550;SDS011;5324;50.684;3.862;2023-05-20T13:58:36;3.60;;;3.30;;
10550;SDS011;5324;50.684;3.862;2023-05-20T14:01:03;4.05;;;3.40;;
10550;SDS011;5324;50.684;3.862;2023-05-20T14:03:29;3.42;;;3.13;;
10550;SDS011;5324;50.684;3.862;2023-05-20T14:05:57;3.15;;;2.90;;
10550;SDS011;5324;50.684;3.862;2023-05-20T14:08:23;3.17;;;2.88;;
10550;SDS011;5324;50.684;3.862;2023-05-20T14:10:53;3.58;;;3.13;;
10550;SDS011;5324;50.684;3.862;2023-05-20T14:13:22;4.93;;;3.25;;
10550;SDS011;5324;50.684;3.862;2023-05-20T14:15:49;3.05;;;2.85;;
10550;SDS011;5324;50.684;3.862;2023-05-20T14:18:15;3.72;;;3.10;;
10550;SDS011;5324;50.684;3.862;2023-05-20T14:20:41;3.00;;;2.78;;
10550;SDS011;5324;50.684;3.862;2023-05-20T14:23:07;4.60;;;3.15;;
10550;SDS011;5324;50.684;3.862;2023-05-20T14:25:34;3.75;;;3.15;;
10550;SDS011;5324;50.684;3.862;2023-05-20T14:28:00;3.20;;;2.92;;
10550;SDS011;5324;50.684;3.862;2023-05-20T14:30:26;2.90;;;2.70;;
10550;SDS011;5324;50.684;3.862;2023-05-20T14:32:52;3.92;;;2.92;;
10550;SDS011;5324;50.684;3.862;2023-05-20T14:35:18;5.47;;;3.00;;
10550;SDS011;5324;50.684;3.862;2023-05-20T14:37:44;5.25;;;2.95;;
10550;SDS011;5324;50.684;3.862;2023-05-20T14:40:10;3.15;;;2.85;;
10550;SDS011;5324;50.684;3.862;2023-05-20T14:42:37;4.70;;;2.95;;
10550;SDS011;5324;50.684;3.862;2023-05-20T14:45:03;4.28;;;3.22;;
10550;SDS011;5324;50.684;3.862;2023-05-20T14:47:31;5.85;;;3.40;;
10550;SDS011;5324;50.684;3.862;2023-05-20T14:49:57;6.22;;;3.28;;
10550;SDS011;5324;50.684;3.862;2023-05-20T14:52:23;3.70;;;2.97;;
10550;SDS011;5324;50.684;3.862;2023-05-20T14:54:49;4.50;;;3.08;;
10550;SDS011;5324;50.684;3.862;2023-05-20T14:57:15;4.53;;;2.33;;
10550;SDS011;5324;50.684;3.862;2023-05-20T14:59:41;3.70;;;3.40;;
10550;SDS011;5324;50.684;3.862;2023-05-20T15:02:07;4.10;;;2.83;;
10550;SDS011;5324;50.684;3.862;2023-05-20T15:04:34;3.47;;;3.17;;
10550;SDS011;5324;50.684;3.862;2023-05-20T15:07:00;4.13;;;3.08;;
10550;SDS011;5324;50.684;3.862;2023-05-20T15:09:26;3.63;;;2.67;;